Time;durP1;ratioP1;P1;durP2;ratioP2;P2;SDS_P1;SDS_P2;PMS_P1;PMS_P2;Temp;Humidity;BMP_temperature;BMP_pressure;BME280_temperature;BME280_humidity;BME280_pressure;Samples;Min_cycle;Max_cycle;Signal;HPM_P1;HPM_P2
2021/01/05 00:01:36;;;;;;;70.03;34.47;;;4.40;92.80;;;;;;4942781;28;90355;-80
2021/01/05 00:04:02;;;;;;;77.70;35.90;;;4.30;93.00;;;;;;4927857;28;87924;-79
2021/01/05 00:06:28;;;;;;;73.73;33.60;;;4.30;93.20;;;;;;4927282;28;87830;-78
2021/01/05 00:08:54;;;;;;;63.57;32.60;;;4.40;93.10;;;;;;4943130;28;91931;-79
2021/01/05 00:11:20;;;;;;;60.33;29.90;;;4.50;92.90;;;;;;4927446;28;90619;-79
2021/01/05 00:13:46;;;;;;;67.73;32.03;;;4.60;92.60;;;;;;4926630;28;87532;-79
2021/01/05 00:16:11;;;;;;;67.53;33.87;;;4.70;92.40;;;;;;4944758;28;87622;-79
2021/01/05 00:18:37;;;;;;;68.27;32.60;;;4.70;92.20;;;;;;4925968;28;92021;-79
2021/01/05 00:21:03;;;;;;;66.87;32.07;;;4.70;92.10;;;;;;4943068;28;92495;-79
2021/01/05 00:23:29;;;;;;;61.43;31.27;;;4.70;92.20;;;;;;4942158;28;87082;-78
2021/01/05 00:25:55;;;;;;;68.60;33.67;;;4.80;92.00;;;;;;4942318;28;87592;-79
2021/01/05 00:28:21;;;;;;;68.87;33.70;;;4.80;91.90;;;;;;4944242;28;87608;-79
2021/01/05 00:30:47;;;;;;;65.87;31.53;;;4.90;91.80;;;;;;4942095;28;90864;-79
2021/01/05 00:33:13;;;;;;;71.03;34.27;;;4.80;91.80;;;;;;4943925;28;87081;-79
2021/01/05 00:35:39;;;;;;;78.50;36.10;;;4.80;92.20;;;;;;4926212;28;87562;-79
2021/01/05 00:38:08;;;;;;;65.43;32.97;;;4.80;92.20;;;;;;4944558;28;88622;-80
2021/01/05 00:40:34;;;;;;;78.00;35.90;;;4.70;92.20;;;;;;4924720;28;87071;-77
2021/01/05 00:43:00;;;;;;;75.70;35.37;;;4.80;92.20;;;;;;4923304;28;88134;-79
2021/01/05 00:45:28;;;;;;;76.57;35.80;;;4.80;92.20;;;;;;4923398;28;87835;-79
2021/01/05 00:47:54;;;;;;;64.37;32.37;;;4.80;92.20;;;;;;4923000;28;91024;-79
2021/01/05 00:50:20;;;;;;;59.77;31.23;;;4.80;92.20;;;;;;4907583;28;90832;-79
2021/01/05 00:52:46;;;;;;;74.17;36.10;;;4.70;92.20;;;;;;4923052;28;87368;-79
2021/01/05 00:55:13;;;;;;;65.83;33.50;;;4.70;92.20;;;;;;4907351;28;87596;-79
2021/01/05 00:57:43;;;;;;;73.67;35.10;;;4.70;92.50;;;;;;4907392;28;90770;-79
2021/01/05 01:00:20;;;;;;;63.53;32.50;;;4.80;92.40;;;;;;4908012;28;91813;-79
2021/01/05 01:02:49;;;;;;;71.50;34.07;;;4.80;92.20;;;;;;4907005;28;87431;-79
2021/01/05 01:05:17;;;;;;;70.03;34.13;;;4.90;92.00;;;;;;4924658;28;87023;-80
2021/01/05 01:07:43;;;;;;;75.47;35.20;;;4.90;91.90;;;;;;4906277;28;91899;-79
2021/01/05 01:10:11;;;;;;;69.90;34.13;;;4.80;92.00;;;;;;4922834;28;92505;-79
2021/01/05 01:12:37;;;;;;;70.17;34.33;;;4.80;92.20;;;;;;4922810;28;86947;-78
2021/01/05 01:15:05;;;;;;;78.30;36.40;;;4.80;92.40;;;;;;4907009;28;88076;-79
2021/01/05 01:17:32;;;;;;;69.60;33.57;;;4.80;92.20;;;;;;4923478;28;91558;-79
2021/01/05 01:19:58;;;;;;;66.37;33.27;;;4.80;92.20;;;;;;4906890;28;89896;-79
2021/01/05 01:22:25;;;;;;;65.07;33.70;;;4.80;92.50;;;;;;4907422;28;86990;-79
2021/01/05 01:25:03;;;;;;;78.60;35.47;;;4.70;92.50;;;;;;4909903;28;87926;-79
2021/01/05 01:27:36;;;;;;;70.67;34.13;;;4.70;92.60;;;;;;4901641;28;90922;-78
2021/01/05 01:30:04;;;;;;;72.03;32.47;;;4.70;92.60;;;;;;4917702;28;90724;-79
2021/01/05 01:32:33;;;;;;;72.53;33.20;;;4.80;92.40;;;;;;4902545;28;87755;-79
2021/01/05 01:34:59;;;;;;;74.00;35.10;;;4.70;92.60;;;;;;4934845;28;87027;-79
2021/01/05 01:37:25;;;;;;;60.77;29.63;;;4.60;92.70;;;;;;4901725;28;90432;-79
2021/01/05 01:39:56;;;;;;;69.10;34.77;;;4.50;92.80;;;;;;4912787;28;89747;-79
2021/01/05 01:42:27;;;;;;;67.43;31.97;;;4.50;92.90;;;;;;4934947;28;87061;-80
2021/01/05 01:44:54;;;;;;;70.27;33.53;;;4.50;93.00;;;;;;4933788;28;88186;-79
2021/01/05 01:47:26;;;;;;;73.97;33.43;;;4.50;93.10;;;;;;4929398;28;91081;-79
2021/01/05 01:49:59;;;;;;;63.05;31.55;;;4.50;93.10;;;;;;4929331;28;91420;-79
2021/01/05 01:53:02;;;;;;;66.72;31.38;;;4.60;93.00;;;;;;4928902;28;86934;-79
2021/01/05 01:56:00;;;;;;;63.90;28.23;;;4.70;92.70;;;;;;4910919;28;87133;-79
2021/01/05 01:58:49;;;;;;;60.67;29.90;;;4.50;92.70;;;;;;4860327;28;92062;-79
2021/01/05 02:01:44;;;;;;;58.00;28.13;;;4.50;93.00;;;;;;4911558;28;93014;-79
2021/01/05 02:04:30;;;;;;;65.40;30.67;;;4.40;93.20;;;;;;4898767;28;86924;-79
2021/01/05 02:07:10;;;;;;;67.07;31.87;;;4.50;93.20;;;;;;4910430;28;88451;-79
2021/01/05 02:09:49;;;;;;;69.93;32.47;;;4.50;93.00;;;;;;4927855;28;91232;-79
2021/01/05 02:12:26;;;;;;;62.03;32.27;;;4.60;92.80;;;;;;4912271;28;90647;-79
2021/01/05 02:15:23;;;;;;;67.87;29.97;;;4.60;92.70;;;;;;4944840;28;87558;-79
2021/01/05 02:18:33;;;;;;;72.17;31.63;;;4.60;92.60;;;;;;4912534;28;88608;-79
2021/01/05 02:21:06;;;;;;;62.93;31.47;;;4.60;92.80;;;;;;4830363;29;92220;-79
2021/01/05 02:24:01;;;;;;;61.20;28.73;;;4.50;92.90;;;;;;4852976;29;91607;-80
2021/01/05 02:26:39;;;;;;;63.97;31.60;;;4.50;93.30;;;;;;4889843;28;88015;-79
2021/01/05 02:29:10;;;;;;;68.10;31.73;;;4.70;92.80;;;;;;4903998;28;88221;-79
2021/01/05 02:31:53;;;;;;;58.70;31.30;;;4.70;92.60;;;;;;4888375;28;90566;-79
2021/01/05 02:34:52;;;;;;;58.23;30.57;;;4.70;92.40;;;;;;4904205;28;87002;-79
2021/01/05 02:37:56;;;;;;;58.30;29.40;;;4.70;92.30;;;;;;4912711;28;87700;-79
2021/01/05 02:40:59;;;;;;;;;;;4.70;92.30;;;;;;4925260;28;87403;-79
2021/01/05 02:44:27;;;;;;;55.40;28.97;;;4.70;92.20;;;;;;4898536;28;87793;-79
2021/01/05 02:47:35;;;;;;;61.00;30.30;;;4.70;92.10;;;;;;4943046;28;87103;-80
2021/01/05 02:50:47;;;;;;;59.40;30.57;;;4.80;92.00;;;;;;4942581;28;86926;-79
2021/01/05 02:54:00;;;;;;;65.72;31.88;;;4.80;92.00;;;;;;4942090;28;86992;-79
2021/01/05 02:57:03;;;;;;;;;;;4.90;91.70;;;;;;4924211;28;88254;-77
2021/01/05 03:00:02;;;;;;;69.17;32.87;;;5.00;91.60;;;;;;4925900;28;87702;-79
2021/01/05 03:03:39;;;;;;;67.77;34.43;;;5.00;91.30;;;;;;4942288;28;86957;-79
2021/01/05 03:06:42;;;;;;;58.07;30.60;;;5.00;91.40;;;;;;4829061;29;86818;-79
2021/01/05 03:09:34;;;;;;;59.57;31.57;;;4.90;91.50;;;;;;4844905;29;87372;-79
2021/01/05 03:12:25;;;;;;;;;;;5.00;91.20;;;;;;4925118;28;87086;-79
2021/01/05 03:15:18;;;;;;;66.07;31.07;;;4.90;91.50;;;;;;4926286;28;86824;-79
2021/01/05 03:18:21;;;;;;;66.90;31.27;;;4.90;91.50;;;;;;4888053;28;86395;-79
2021/01/05 03:21:17;;;;;;;62.27;31.37;;;4.90;91.40;;;;;;4902745;28;87247;-79
2021/01/05 03:24:03;;;;;;;56.07;29.63;;;4.80;91.60;;;;;;4885473;28;87136;-79
2021/01/05 03:26:49;;;;;;;59.93;29.43;;;4.90;91.50;;;;;;4896865;28;87903;-78
2021/01/05 03:29:33;;;;;;;62.27;31.33;;;4.90;91.50;;;;;;4899675;28;86725;-79
2021/01/05 03:32:18;;;;;;;71.80;35.43;;;4.90;91.60;;;;;;4899282;28;87324;-79
2021/01/05 03:35:03;;;;;;;64.60;32.13;;;4.90;91.50;;;;;;4899221;28;86965;-79
2021/01/05 03:37:47;;;;;;;66.13;33.40;;;4.90;91.60;;;;;;4903280;28;86872;-79
2021/01/05 03:40:36;;;;;;;68.43;32.83;;;5.00;91.60;;;;;;4874600;28;86992;-79
2021/01/05 03:43:20;;;;;;;60.60;31.67;;;5.00;91.50;;;;;;4899446;28;87307;-79
2021/01/05 03:46:28;;;;;;;74.30;35.17;;;4.90;91.70;;;;;;4833596;29;87733;-79
2021/01/05 03:49:13;;;;;;;67.50;33.57;;;5.10;91.60;;;;;;4844424;29;87132;-79
2021/01/05 03:51:57;;;;;;;71.87;34.40;;;5.10;91.50;;;;;;4887774;28;87045;-79
2021/01/05 03:54:41;;;;;;;71.90;34.83;;;5.10;91.50;;;;;;4903387;28;87718;-80
2021/01/05 03:57:25;;;;;;;66.50;33.77;;;5.00;91.60;;;;;;4900305;28;88047;-79
2021/01/05 04:00:19;;;;;;;75.37;36.13;;;5.00;91.80;;;;;;4900240;28;86947;-79
2021/01/05 04:02:45;;;;;;;65.83;32.97;;;5.00;91.80;;;;;;4908261;28;87990;-80
2021/01/05 04:05:14;;;;;;;65.53;32.70;;;4.90;91.90;;;;;;4901823;28;86898;-79
2021/01/05 04:07:39;;;;;;;71.23;34.70;;;5.00;91.80;;;;;;4901173;28;91537;-79
2021/01/05 04:10:09;;;;;;;81.47;34.83;;;5.00;91.80;;;;;;4900980;28;87479;-79
2021/01/05 04:12:36;;;;;;;64.60;34.60;;;4.90;91.90;;;;;;4901491;28;88245;-79
2021/01/05 04:15:07;;;;;;;67.77;33.13;;;4.80;92.10;;;;;;4900632;28;88100;-79
2021/01/05 04:17:33;;;;;;;64.55;33.30;;;4.80;92.20;;;;;;4903017;28;87918;-79
2021/01/05 04:19:59;;;;;;;56.27;31.43;;;4.80;92.30;;;;;;4884341;28;88101;-79
2021/01/05 04:22:25;;;;;;;64.83;33.00;;;4.80;92.20;;;;;;4900681;28;87272;-79
2021/01/05 04:24:50;;;;;;;59.20;30.67;;;4.80;92.10;;;;;;4900835;28;88118;-78
2021/01/05 04:27:16;;;;;;;60.93;31.33;;;4.80;92.20;;;;;;4885021;28;91577;-79
2021/01/05 04:29:42;;;;;;;59.43;32.27;;;4.80;92.30;;;;;;4885288;28;87236;-79
2021/01/05 04:32:09;;;;;;;58.30;30.97;;;4.80;92.20;;;;;;4869031;28;88112;-79
2021/01/05 04:34:35;;;;;;;57.33;30.63;;;4.90;92.00;;;;;;4910837;28;87919;-79
2021/01/05 04:37:01;;;;;;;60.30;31.10;;;4.90;91.90;;;;;;4903712;28;90379;-79
2021/01/05 04:39:26;;;;;;;62.13;30.37;;;4.90;91.80;;;;;;4888399;28;87100;-79
2021/01/05 04:42:12;;;;;;;51.40;29.37;;;4.90;91.80;;;;;;4903972;28;87476;-78
2021/01/05 04:45:07;;;;;;;53.77;30.20;;;4.90;91.70;;;;;;4905323;28;92805;-79
2021/01/05 04:47:50;;;;;;;48.90;26.43;;;4.80;91.80;;;;;;4904248;28;90281;-79
2021/01/05 04:50:27;;;;;;;43.20;27.93;;;4.80;91.90;;;;;;4924957;28;86856;-79
2021/01/05 04:53:02;;;;;;;49.23;26.93;;;4.90;91.90;;;;;;4891080;28;88221;-78
2021/01/05 04:55:55;;;;;;;47.23;26.07;;;4.80;91.50;;;;;;4908359;28;88265;-80
2021/01/05 04:58:33;;;;;;;47.13;27.23;;;4.70;91.70;;;;;;4908509;28;87620;-79
2021/01/05 05:01:01;;;;;;;50.23;27.87;;;4.80;91.70;;;;;;4891376;28;86907;-79
2021/01/05 05:04:05;;;;;;;47.30;27.03;;;4.80;91.50;;;;;;4892149;28;87990;-79
2021/01/05 05:06:52;;;;;;;45.33;26.07;;;4.70;91.80;;;;;;4891789;28;91477;-79
2021/01/05 05:09:33;;;;;;;45.43;26.57;;;4.70;91.70;;;;;;4898316;28;91870;-79
2021/01/05 05:12:23;;;;;;;43.97;25.00;;;4.70;91.60;;;;;;4925937;28;87731;-78
2021/01/05 05:15:03;;;;;;;43.07;24.90;;;4.70;91.60;;;;;;4944944;28;86961;-79
2021/01/05 05:17:39;;;;;;;43.13;24.73;;;4.60;91.80;;;;;;4927288;28;90567;-79
2021/01/05 05:20:25;;;;;;;41.47;25.43;;;4.70;91.80;;;;;;4926783;28;91120;-79
2021/01/05 05:22:57;;;;;;;41.97;23.53;;;4.60;91.80;;;;;;4911754;28;87424;-79
2021/01/05 05:25:36;;;;;;;45.13;26.23;;;4.60;91.70;;;;;;4911204;28;88232;-79
2021/01/05 05:28:08;;;;;;;42.03;23.90;;;4.60;91.70;;;;;;4941428;28;91618;-81
2021/01/05 05:30:37;;;;;;;38.88;22.90;;;4.60;91.80;;;;;;4943827;28;88040;-79
2021/01/05 05:33:12;;;;;;;44.73;26.17;;;4.70;91.70;;;;;;4942987;28;87326;-79
2021/01/05 05:36:06;;;;;;;44.47;25.73;;;4.70;91.80;;;;;;4943940;28;87205;-79
2021/01/05 05:38:44;;;;;;;46.10;25.00;;;4.80;91.50;;;;;;4934279;28;91645;-79
2021/01/05 05:41:20;;;;;;;43.00;25.43;;;4.60;91.50;;;;;;4945226;28;88903;-79
2021/01/05 05:43:58;;;;;;;43.27;25.03;;;4.50;91.80;;;;;;4945186;28;87138;-79
2021/01/05 05:46:51;;;;;;;41.80;25.97;;;4.60;91.90;;;;;;4934837;28;87574;-79
2021/01/05 05:49:28;;;;;;;37.10;23.37;;;4.70;91.70;;;;;;4931724;28;87103;-79
2021/01/05 05:51:58;;;;;;;39.43;23.80;;;4.70;91.80;;;;;;4926273;28;88461;-79
2021/01/05 05:54:24;;;;;;;36.23;23.17;;;4.70;91.60;;;;;;4906458;28;87946;-79
2021/01/05 05:57:11;;;;;;;40.80;24.13;;;4.70;91.40;;;;;;4907006;28;87439;-79
2021/01/05 05:59:48;;;;;;;45.87;24.60;;;4.70;91.40;;;;;;4906533;28;91759;-79
2021/01/05 06:02:20;;;;;;;42.10;24.50;;;4.70;91.40;;;;;;4922026;28;88637;-79
2021/01/05 06:04:47;;;;;;;40.50;23.73;;;4.60;91.60;;;;;;4906398;28;88233;-79
2021/01/05 06:07:13;;;;;;;37.43;23.73;;;4.60;91.70;;;;;;4923545;28;87166;-79
2021/01/05 06:09:39;;;;;;;44.43;25.80;;;4.60;91.70;;;;;;4906716;28;91839;-79
2021/01/05 06:12:08;;;;;;;41.37;24.60;;;4.60;91.60;;;;;;4922352;28;90985;-79
2021/01/05 06:14:34;;;;;;;37.57;24.13;;;4.60;91.60;;;;;;4922597;28;87301;-79
2021/01/05 06:17:00;;;;;;;40.57;24.00;;;4.70;91.50;;;;;;4923752;28;88475;-78
2021/01/05 06:19:26;;;;;;;42.63;24.17;;;4.70;91.40;;;;;;4940398;28;90663;-79
2021/01/05 06:21:51;;;;;;;42.47;24.60;;;4.80;91.10;;;;;;4941825;28;91856;-79
2021/01/05 06:24:17;;;;;;;43.00;24.27;;;4.80;91.00;;;;;;4940928;28;86963;-79
2021/01/05 06:26:43;;;;;;;38.30;23.23;;;4.80;91.10;;;;;;4942507;28;87113;-79
2021/01/05 06:29:09;;;;;;;41.87;24.43;;;4.80;91.00;;;;;;4923935;28;92636;-78
2021/01/05 06:31:34;;;;;;;36.83;22.57;;;4.80;90.80;;;;;;4942486;28;87987;-78
2021/01/05 06:34:00;;;;;;;37.93;24.30;;;4.80;91.00;;;;;;4942777;28;86855;-78
2021/01/05 06:36:26;;;;;;;38.07;24.60;;;4.80;91.10;;;;;;4910824;28;87094;-79
2021/01/05 06:38:52;;;;;;;36.57;22.93;;;4.80;90.90;;;;;;4880140;28;91274;-79
2021/01/05 06:41:18;;;;;;;42.17;24.83;;;4.80;91.00;;;;;;4921542;28;87556;-78
2021/01/05 06:43:44;;;;;;;39.20;24.67;;;4.80;91.00;;;;;;4912240;28;87785;-79
2021/01/05 06:46:10;;;;;;;37.70;24.10;;;4.90;90.80;;;;;;4905509;28;88296;-78
2021/01/05 06:48:36;;;;;;;37.57;22.73;;;4.90;90.70;;;;;;4888465;28;91593;-79
2021/01/05 06:51:06;;;;;;;39.73;23.73;;;5.00;90.70;;;;;;4889345;28;88225;-78
2021/01/05 06:53:32;;;;;;;34.43;22.43;;;5.00;90.40;;;;;;4905202;28;87986;-79
2021/01/05 06:55:58;;;;;;;38.03;22.73;;;5.00;90.40;;;;;;4905481;28;88076;-79
2021/01/05 06:58:24;;;;;;;34.13;22.73;;;5.00;90.40;;;;;;4922023;28;87667;-78
2021/01/05 07:00:50;;;;;;;33.60;22.10;;;5.00;90.20;;;;;;4905422;28;87926;-79
2021/01/05 07:03:15;;;;;;;37.00;22.90;;;5.00;90.10;;;;;;4888614;28;87546;-79
2021/01/05 07:05:41;;;;;;;34.93;22.23;;;5.00;90.20;;;;;;4905494;28;86986;-79
2021/01/05 07:08:07;;;;;;;38.03;24.93;;;5.00;90.10;;;;;;4896664;28;88812;-78
2021/01/05 07:10:33;;;;;;;38.87;23.57;;;5.00;90.20;;;;;;4887254;28;87239;-79
2021/01/05 07:12:59;;;;;;;38.13;24.80;;;4.90;90.50;;;;;;4886624;28;87333;-79
2021/01/05 07:15:24;;;;;;;41.03;24.77;;;4.80;90.70;;;;;;4869755;28;88101;-79
2021/01/05 07:17:50;;;;;;;42.23;25.07;;;4.90;90.60;;;;;;4902954;28;88628;-79
2021/01/05 07:20:16;;;;;;;41.20;25.13;;;4.90;90.50;;;;;;4869371;28;91190;-78
2021/01/05 07:22:43;;;;;;;38.87;23.87;;;5.00;90.30;;;;;;4886184;28;86968;-79
2021/01/05 07:25:12;;;;;;;40.07;25.50;;;5.00;90.30;;;;;;4892345;28;87212;-78
2021/01/05 07:27:38;;;;;;;36.53;23.30;;;5.00;90.30;;;;;;4889092;28;91910;-79
2021/01/05 07:30:06;;;;;;;39.17;23.87;;;5.00;90.30;;;;;;4922093;28;87746;-78
2021/01/05 07:32:32;;;;;;;40.10;25.50;;;5.10;90.20;;;;;;4888814;28;87486;-78
2021/01/05 07:34:58;;;;;;;41.67;24.90;;;5.20;90.10;;;;;;4900126;28;86485;-79
2021/01/05 07:37:28;;;;;;;39.77;24.83;;;5.10;90.00;;;;;;4891447;28;91240;-79
2021/01/05 07:39:55;;;;;;;42.83;27.47;;;5.10;90.00;;;;;;4915389;28;87592;-79
2021/01/05 07:42:24;;;;;;;38.37;23.77;;;5.10;90.10;;;;;;4894454;28;88359;-78
2021/01/05 07:44:53;;;;;;;45.23;26.40;;;5.10;90.10;;;;;;4907165;28;87666;-79
2021/01/05 07:47:22;;;;;;;42.17;25.73;;;5.00;90.20;;;;;;4920767;28;91114;-79
2021/01/05 07:49:48;;;;;;;43.73;25.50;;;5.00;90.30;;;;;;4922600;28;87949;-79
2021/01/05 07:52:34;;;;;;;42.30;25.77;;;4.90;90.40;;;;;;4907456;28;87238;-79
2021/01/05 07:55:02;;;;;;;41.13;24.00;;;4.90;90.60;;;;;;4901599;28;88349;-79
2021/01/05 07:57:28;;;;;;;41.67;25.03;;;4.90;90.50;;;;;;4879938;28;91886;-79
2021/01/05 07:59:53;;;;;;;40.07;25.50;;;5.00;90.50;;;;;;4905426;28;86475;-79
2021/01/05 08:02:19;;;;;;;37.47;23.77;;;5.00;90.40;;;;;;4917873;28;87224;-79
2021/01/05 08:04:45;;;;;;;39.63;24.57;;;5.00;90.50;;;;;;4888998;28;87627;-79
2021/01/05 08:07:12;;;;;;;42.17;26.57;;;5.10;90.40;;;;;;4884412;28;92764;-78
2021/01/05 08:09:39;;;;;;;35.73;22.07;;;5.10;90.40;;;;;;4897480;28;88913;-78
2021/01/05 08:12:13;;;;;;;35.87;21.83;;;5.10;90.30;;;;;;4922019;28;87080;-78
2021/01/05 08:14:39;;;;;;;38.57;22.87;;;5.10;90.30;;;;;;4890572;28;86917;-79
2021/01/05 08:17:05;;;;;;;40.43;22.90;;;5.10;90.20;;;;;;4893825;28;89813;-79
2021/01/05 08:19:31;;;;;;;35.97;22.73;;;5.20;90.00;;;;;;4914702;28;91318;-79
2021/01/05 08:21:57;;;;;;;36.33;22.20;;;5.10;90.00;;;;;;4899655;28;86985;-77
2021/01/05 08:24:23;;;;;;;32.57;21.40;;;5.10;90.00;;;;;;4907415;28;86912;-78
2021/01/05 08:26:48;;;;;;;33.90;22.00;;;5.10;90.10;;;;;;4910207;28;91701;-80
2021/01/05 08:29:14;;;;;;;35.77;22.93;;;5.10;90.10;;;;;;4918206;28;89932;-79
2021/01/05 08:31:43;;;;;;;31.83;22.90;;;5.20;90.00;;;;;;4904554;28;88432;-78
2021/01/05 08:34:09;;;;;;;33.70;22.17;;;5.10;90.00;;;;;;4914379;28;88035;-78
2021/01/05 08:36:35;;;;;;;36.93;22.90;;;5.20;89.70;;;;;;4914529;28;87880;-79
2021/01/05 08:39:03;;;;;;;38.37;24.07;;;5.20;89.70;;;;;;4919985;28;89025;-79
2021/01/05 08:41:29;;;;;;;35.30;21.50;;;5.20;89.60;;;;;;4903730;28;87144;-79
2021/01/05 08:43:55;;;;;;;35.57;21.57;;;5.10;89.90;;;;;;4913763;28;87825;-78
2021/01/05 08:46:27;;;;;;;37.90;24.27;;;5.00;90.00;;;;;;4912593;28;87616;-78
2021/01/05 08:48:54;;;;;;;33.60;22.83;;;5.10;90.10;;;;;;4917157;28;91458;-80
2021/01/05 08:51:22;;;;;;;32.47;21.73;;;5.10;90.10;;;;;;4920846;28;87173;-80
2021/01/05 08:53:49;;;;;;;29.50;19.30;;;5.20;89.90;;;;;;4913906;28;87378;-80
2021/01/05 08:56:24;;;;;;;30.90;20.87;;;5.20;89.80;;;;;;4914770;28;88915;-78
2021/01/05 08:58:50;;;;;;;32.23;20.33;;;5.20;89.70;;;;;;4917691;28;92585;-80
2021/01/05 09:01:16;;;;;;;30.40;19.70;;;5.20;89.30;;;;;;4898604;28;87485;-80
2021/01/05 09:03:42;;;;;;;29.07;19.13;;;5.10;89.40;;;;;;4917194;28;87517;-78
2021/01/05 09:06:08;;;;;;;33.60;21.77;;;5.20;89.50;;;;;;4902749;28;91405;-78
2021/01/05 09:08:35;;;;;;;32.87;21.50;;;5.20;89.00;;;;;;4914118;28;92075;-79
2021/01/05 09:11:05;;;;;;;29.97;20.83;;;5.00;89.30;;;;;;4919493;28;87655;-79
2021/01/05 09:13:30;;;;;;;39.33;23.63;;;5.00;90.00;;;;;;4909645;28;87558;-78
2021/01/05 09:15:56;;;;;;;35.30;22.13;;;5.00;90.00;;;;;;4932128;28;87157;-80
2021/01/05 09:18:23;;;;;;;34.03;22.73;;;5.00;89.70;;;;;;4927884;28;87433;-79
2021/01/05 09:20:51;;;;;;;38.90;23.40;;;5.00;89.60;;;;;;4912064;28;88474;-78
2021/01/05 09:23:22;;;;;;;33.57;21.83;;;5.10;89.20;;;;;;4915131;28;87827;-79
2021/01/05 09:25:50;;;;;;;29.40;20.57;;;5.20;89.00;;;;;;4902843;28;91491;-79
2021/01/05 09:28:15;;;;;;;29.50;19.10;;;5.20;88.80;;;;;;4912169;28;87863;-79
2021/01/05 09:30:41;;;;;;;28.10;18.77;;;5.20;88.90;;;;;;4916854;28;87174;-79
2021/01/05 09:33:08;;;;;;;25.33;18.17;;;5.20;88.70;;;;;;4917596;28;87635;-79
2021/01/05 09:35:34;;;;;;;21.23;15.07;;;5.20;88.50;;;;;;4921738;28;92215;-80
2021/01/05 09:38:00;;;;;;;25.47;17.80;;;5.10;89.20;;;;;;4919543;28;89348;-79
2021/01/05 09:40:25;;;;;;;25.60;16.17;;;5.10;89.10;;;;;;4893093;28;87437;-79
2021/01/05 09:42:51;;;;;;;24.33;16.63;;;5.10;88.90;;;;;;4922918;28;87087;-78
2021/01/05 09:45:17;;;;;;;22.90;15.87;;;5.10;88.50;;;;;;4903743;28;92346;-79
2021/01/05 09:47:43;;;;;;;21.57;14.50;;;5.20;88.20;;;;;;4922551;28;88827;-79
2021/01/05 09:50:10;;;;;;;21.80;15.53;;;5.20;88.00;;;;;;4913303;28;86916;-77
2021/01/05 09:52:36;;;;;;;21.47;14.33;;;5.20;88.00;;;;;;4921858;28;87043;-79
2021/01/05 09:55:04;;;;;;;22.63;14.27;;;5.20;88.10;;;;;;4921026;28;87020;-78
2021/01/05 09:57:30;;;;;;;18.17;13.43;;;5.20;87.70;;;;;;4919665;28;91040;-78
2021/01/05 09:59:56;;;;;;;18.90;14.10;;;5.20;87.50;;;;;;4920567;28;87041;-78
2021/01/05 10:02:22;;;;;;;22.07;13.77;;;5.10;87.60;;;;;;4918916;28;86240;-78
2021/01/05 10:04:48;;;;;;;22.10;14.77;;;5.10;88.10;;;;;;4912840;28;91029;-78
2021/01/05 10:07:13;;;;;;;18.70;13.73;;;5.10;87.80;;;;;;4913972;28;87934;-78
2021/01/05 10:09:39;;;;;;;19.80;13.33;;;5.10;88.20;;;;;;4911823;28;88434;-79
2021/01/05 10:12:06;;;;;;;18.33;13.30;;;5.00;88.30;;;;;;4912443;28;87371;-78
2021/01/05 10:14:32;;;;;;;18.27;13.10;;;5.00;88.00;;;;;;4909917;28;87937;-78
2021/01/05 10:16:58;;;;;;;16.90;12.63;;;5.10;87.90;;;;;;4913371;28;87497;-78
2021/01/05 10:19:24;;;;;;;19.50;13.47;;;5.10;87.90;;;;;;4912798;28;88603;-79
2021/01/05 10:21:51;;;;;;;18.63;12.40;;;5.20;87.40;;;;;;4889950;28;87277;-79
2021/01/05 10:24:17;;;;;;;20.77;13.37;;;5.20;87.10;;;;;;4903153;28;90994;-80
2021/01/05 10:26:54;;;;;;;17.47;12.97;;;5.30;86.70;;;;;;4931106;28;90013;-79
2021/01/05 10:29:20;;;;;;;19.30;14.17;;;5.30;86.80;;;;;;4917279;28;87092;-78
2021/01/05 10:31:46;;;;;;;17.37;13.17;;;5.30;86.60;;;;;;4907366;28;87650;-79
2021/01/05 10:34:14;;;;;;;19.70;14.77;;;5.20;86.40;;;;;;4904926;28;88814;-79
2021/01/05 10:36:40;;;;;;;19.40;13.90;;;5.20;86.40;;;;;;4907125;28;92113;-78
2021/01/05 10:39:08;;;;;;;19.40;13.07;;;5.20;86.90;;;;;;4927419;28;87251;-78
2021/01/05 10:41:36;;;;;;;21.73;14.53;;;5.20;86.90;;;;;;4912794;28;87992;-78
2021/01/05 10:44:03;;;;;;;19.20;13.43;;;5.20;87.10;;;;;;4928236;28;88145;-78
2021/01/05 10:46:28;;;;;;;18.50;12.57;;;5.30;86.90;;;;;;4901092;28;91824;-77
2021/01/05 10:48:54;;;;;;;23.57;14.10;;;5.20;86.70;;;;;;4920849;28;87688;-78
2021/01/05 10:51:20;;;;;;;25.67;15.50;;;5.20;86.60;;;;;;4916869;28;86325;-78
2021/01/05 10:53:46;;;;;;;29.20;17.30;;;5.30;86.60;;;;;;4908374;28;89884;-78
2021/01/05 10:56:17;;;;;;;27.60;15.60;;;5.30;86.60;;;;;;4921175;28;90217;-77
2021/01/05 10:58:42;;;;;;;25.83;16.97;;;5.30;86.20;;;;;;4921415;28;88163;-78
2021/01/05 11:01:08;;;;;;;21.30;14.60;;;5.30;86.10;;;;;;4924299;28;87386;-78
2021/01/05 11:03:36;;;;;;;18.73;13.57;;;5.30;86.20;;;;;;4918592;28;91542;-78
2021/01/05 11:06:03;;;;;;;20.03;13.43;;;5.30;86.10;;;;;;4903546;28;91029;-78
2021/01/05 11:08:29;;;;;;;18.13;13.70;;;5.30;86.50;;;;;;4919133;28;87532;-78
2021/01/05 11:10:54;;;;;;;18.60;13.00;;;5.30;86.30;;;;;;4903210;28;87978;-78
2021/01/05 11:13:20;;;;;;;20.43;14.43;;;5.30;86.40;;;;;;4918614;28;91042;-78
2021/01/05 11:15:46;;;;;;;23.50;14.67;;;5.30;86.40;;;;;;4919956;28;91326;-78
2021/01/05 11:18:12;;;;;;;16.97;12.57;;;5.30;86.20;;;;;;4918341;28;87032;-78
2021/01/05 11:20:41;;;;;;;21.43;13.87;;;5.30;86.00;;;;;;4897518;28;87671;-78
2021/01/05 11:23:09;;;;;;;21.70;15.03;;;5.40;86.10;;;;;;4921305;28;90692;-78
2021/01/05 11:25:35;;;;;;;20.67;14.10;;;5.30;86.00;;;;;;4922489;28;88635;-78
2021/01/05 11:28:03;;;;;;;21.37;12.50;;;5.30;86.00;;;;;;4876798;28;87203;-78
2021/01/05 11:30:29;;;;;;;22.53;14.60;;;5.20;86.00;;;;;;4897810;28;88165;-78
2021/01/05 11:32:55;;;;;;;20.33;14.03;;;5.20;86.00;;;;;;4924064;28;90574;-78
2021/01/05 11:35:21;;;;;;;22.23;15.10;;;5.30;85.90;;;;;;4895168;28;90730;-77
2021/01/05 11:37:46;;;;;;;18.63;14.20;;;5.30;85.70;;;;;;4903882;28;88510;-78
2021/01/05 11:40:13;;;;;;;22.73;15.27;;;5.30;85.30;;;;;;4906985;28;86648;-78
2021/01/05 11:42:39;;;;;;;24.63;16.27;;;5.30;85.40;;;;;;4914604;28;89667;-78
2021/01/05 11:45:06;;;;;;;24.30;18.20;;;5.30;84.90;;;;;;4918881;28;90951;-78
2021/01/05 11:47:32;;;;;;;23.33;18.10;;;5.30;84.70;;;;;;4918076;28;88260;-78
2021/01/05 11:49:58;;;;;;;22.70;17.00;;;5.30;84.90;;;;;;4901510;28;88040;-78
2021/01/05 11:52:25;;;;;;;21.57;15.97;;;5.30;84.80;;;;;;4902651;28;91444;-78
2021/01/05 11:54:51;;;;;;;23.77;15.73;;;5.20;84.60;;;;;;4923615;28;87114;-79
2021/01/05 11:57:17;;;;;;;17.40;13.57;;;5.20;84.80;;;;;;4901243;28;88407;-78
2021/01/05 11:59:43;;;;;;;20.97;14.90;;;5.20;84.80;;;;;;4918942;28;87579;-78
2021/01/05 12:02:09;;;;;;;18.27;12.93;;;5.20;84.70;;;;;;4922034;28;87790;-78
2021/01/05 12:04:35;;;;;;;19.00;13.70;;;5.30;84.70;;;;;;4903333;28;90829;-78
2021/01/05 12:07:00;;;;;;;17.20;12.87;;;5.20;84.70;;;;;;4911928;28;87849;-77
2021/01/05 12:09:28;;;;;;;21.20;15.03;;;5.20;84.60;;;;;;4921529;28;87114;-78
2021/01/05 12:11:56;;;;;;;20.10;13.20;;;5.20;84.50;;;;;;4905520;28;88140;-78
2021/01/05 12:14:22;;;;;;;19.27;13.87;;;5.20;84.20;;;;;;4919448;28;88648;-78
2021/01/05 12:16:48;;;;;;;17.87;12.20;;;5.10;84.00;;;;;;4926061;28;87374;-78
2021/01/05 12:19:29;;;;;;;21.27;13.07;;;5.10;84.00;;;;;;4936088;28;87796;-78
2021/01/05 12:21:57;;;;;;;17.23;12.97;;;5.10;83.80;;;;;;4938839;28;87944;-78
2021/01/05 12:24:26;;;;;;;20.20;16.23;;;5.10;83.80;;;;;;4939717;28;88432;-78
2021/01/05 12:26:52;;;;;;;19.60;13.90;;;5.10;83.70;;;;;;4942285;28;87126;-78
2021/01/05 12:29:22;;;;;;;15.83;12.07;;;5.10;83.60;;;;;;4929623;28;87710;-77
2021/01/05 12:32:09;;;;;;;19.70;13.50;;;5.10;83.30;;;;;;4923484;28;88502;-78
2021/01/05 12:34:37;;;;;;;17.33;12.03;;;5.10;82.90;;;;;;4910122;28;91608;-78
2021/01/05 12:37:07;;;;;;;16.73;12.80;;;5.00;83.00;;;;;;4914463;28;89635;-78
2021/01/05 12:39:34;;;;;;;15.83;12.03;;;5.00;83.10;;;;;;4920826;28;87661;-77
2021/01/05 12:42:06;;;;;;;17.50;12.30;;;4.90;83.30;;;;;;4905153;28;91284;-78
2021/01/05 12:44:31;;;;;;;14.67;11.17;;;5.00;83.20;;;;;;4905593;28;90914;-78
2021/01/05 12:46:57;;;;;;;16.87;11.83;;;5.00;83.00;;;;;;4924588;28;86995;-79
2021/01/05 12:49:24;;;;;;;15.50;11.77;;;5.00;83.10;;;;;;4925237;28;87681;-78
2021/01/05 12:51:50;;;;;;;14.10;11.43;;;4.90;83.30;;;;;;4919408;28;90530;-78
2021/01/05 12:54:25;;;;;;;15.53;11.20;;;5.00;83.20;;;;;;4912078;28;86730;-78
2021/01/05 12:56:53;;;;;;;15.37;9.97;;;5.00;83.00;;;;;;4907390;28;88218;-78
2021/01/05 12:59:19;;;;;;;15.50;10.97;;;4.90;83.20;;;;;;4892706;28;87635;-78
2021/01/05 13:01:45;;;;;;;15.27;11.50;;;4.90;83.10;;;;;;4894158;28;91151;-78
2021/01/05 13:04:11;;;;;;;17.80;11.03;;;4.90;83.00;;;;;;4914154;28;91792;-78